Time;durP1;ratioP1;P1;durP2;ratioP2;P2;SDS_P1;SDS_P2;PMS_P1;PMS_P2;Temp;Humidity;BMP_temperature;BMP_pressure;BME280_temperature;BME280_humidity;BME280_pressure;Samples;Min_cycle;Max_cycle;Signal;HPM_P1;HPM_P2
2023/11/17 00:01:57;;;;;;;4.30;3.90;;;;;;;;;;5069953;28;20220;-55
2023/11/17 00:04:23;;;;;;;8.33;4.60;;;;;;;;;;5070135;28;20623;-56
2023/11/17 00:06:49;;;;;;;4.67;4.27;;;;;;;;;;5070712;28;20183;-55
2023/11/17 00:09:15;;;;;;;;;;;;;;;;;;5071346;28;20191;-55
2023/11/17 00:11:42;;;;;;;5.17;4.67;;;;;;;;;;5070842;28;20201;-55
2023/11/17 00:14:08;;;;;;;5.20;4.63;;;;;;;;;;5071094;28;20722;-55
2023/11/17 00:16:34;;;;;;;8.33;5.00;;;;;;;;;;5070162;28;20180;-55
2023/11/17 00:19:01;;;;;;;5.30;4.80;;;;;;;;;;5070610;28;20793;-55
2023/11/17 00:21:27;;;;;;;5.03;4.53;;;;;;;;;;5069720;28;20196;-55
2023/11/17 00:23:53;;;;;;;7.20;5.20;;;;;;;;;;5069409;28;20295;-55
2023/11/17 00:26:20;;;;;;;4.90;4.50;;;;;;;;;;5069445;28;20567;-56
2023/11/17 00:28:48;;;;;;;6.00;4.60;;;;;;;;;;5070649;28;20172;-55
2023/11/17 00:31:14;;;;;;;6.10;4.40;;;;;;;;;;5069099;28;20220;-55
2023/11/17 00:33:40;;;;;;;4.67;4.27;;;;;;;;;;5070506;28;20536;-55
2023/11/17 00:36:08;;;;;;;6.30;4.80;;;;;;;;;;5069856;28;20574;-55
2023/11/17 00:38:36;;;;;;;7.87;5.27;;;;;;;;;;5070041;28;20302;-55
2023/11/17 00:41:02;;;;;;;4.73;4.33;;;;;;;;;;5069521;28;20180;-55
2023/11/17 00:43:29;;;;;;;5.23;4.73;;;;;;;;;;5070660;28;20773;-55
2023/11/17 00:45:58;;;;;;;5.43;4.50;;;;;;;;;;5067341;28;20271;-55
2023/11/17 00:48:28;;;;;;;4.83;4.30;;;;;;;;;;5070123;28;20209;-53
2023/11/17 00:50:57;;;;;;;6.20;5.13;;;;;;;;;;5070362;28;20177;-53
2023/11/17 00:53:25;;;;;;;6.53;4.77;;;;;;;;;;5069132;28;20184;-53
2023/11/17 00:55:51;;;;;;;5.87;4.67;;;;;;;;;;5069203;28;20216;-53
2023/11/17 00:58:17;;;;;;;5.20;4.57;;;;;;;;;;5067840;28;20200;-54
2023/11/17 01:00:43;;;;;;;5.20;4.70;;;;;;;;;;5069670;28;20185;-54
2023/11/17 01:03:10;;;;;;;4.90;4.33;;;;;;;;;;5070498;28;20299;-54
2023/11/17 01:05:36;;;;;;;7.07;4.37;;;;;;;;;;5069200;28;20280;-54
2023/11/17 01:08:02;;;;;;;5.23;4.63;;;;;;;;;;5070018;28;20238;-54
2023/11/17 01:10:28;;;;;;;4.97;4.30;;;;;;;;;;5070080;28;20238;-54
2023/11/17 01:12:54;;;;;;;6.13;4.47;;;;;;;;;;5069261;28;20282;-53
2023/11/17 01:15:21;;;;;;;6.00;4.60;;;;;;;;;;5069505;28;20655;-53
2023/11/17 01:17:47;;;;;;;4.53;3.93;;;;;;;;;;5069324;28;20173;-53
2023/11/17 01:20:13;;;;;;;4.60;4.17;;;;;;;;;;5069959;28;20678;-54
2023/11/17 01:22:40;;;;;;;5.33;4.70;;;;;;;;;;5068810;28;20180;-53
2023/11/17 01:25:06;;;;;;;4.57;4.17;;;;;;;;;;5069076;28;20211;-54
2023/11/17 01:27:32;;;;;;;6.40;4.50;;;;;;;;;;5068790;28;20180;-54
2023/11/17 01:29:58;;;;;;;6.10;4.40;;;;;;;;;;5069526;28;20223;-53
2023/11/17 01:32:24;;;;;;;5.60;4.63;;;;;;;;;;5068864;28;20224;-54
2023/11/17 01:34:52;;;;;;;4.93;4.37;;;;;;;;;;5068409;28;20202;-54
2023/11/17 01:37:18;;;;;;;4.33;3.93;;;;;;;;;;5066079;28;20211;-54
2023/11/17 01:39:45;;;;;;;5.47;4.97;;;;;;;;;;5069397;28;20208;-54
2023/11/17 01:42:11;;;;;;;7.07;5.03;;;;;;;;;;5069269;28;20893;-54
2023/11/17 01:44:37;;;;;;;6.77;5.40;;;;;;;;;;5067120;28;20211;-54
2023/11/17 01:47:05;;;;;;;4.30;3.90;;;;;;;;;;5067658;28;20188;-54
2023/11/17 01:49:31;;;;;;;7.67;5.17;;;;;;;;;;5066234;28;20242;-54
2023/11/17 01:51:57;;;;;;;5.53;4.53;;;;;;;;;;5069085;28;20263;-54
2023/11/17 01:54:23;;;;;;;5.23;4.53;;;;;;;;;;5068623;28;20208;-54
2023/11/17 01:56:50;;;;;;;5.00;4.40;;;;;;;;;;5068671;28;20185;-54
2023/11/17 01:59:17;;;;;;;5.93;4.80;;;;;;;;;;5069431;28;20227;-55
2023/11/17 02:01:43;;;;;;;5.13;4.63;;;;;;;;;;5067724;28;20184;-55
2023/11/17 02:04:09;;;;;;;5.93;4.90;;;;;;;;;;5068704;28;20214;-55
2023/11/17 02:06:52;;;;;;;6.20;4.87;;;;;;;;;;5067747;28;20211;-55
2023/11/17 02:09:21;;;;;;;7.53;4.93;;;;;;;;;;5069091;28;20187;-55
2023/11/17 02:11:54;;;;;;;4.90;4.47;;;;;;;;;;5069117;28;20205;-55
2023/11/17 02:14:21;;;;;;;5.90;4.43;;;;;;;;;;5068493;28;20211;-55
2023/11/17 02:16:50;;;;;;;6.83;5.07;;;;;;;;;;5067770;28;20276;-55
2023/11/17 02:19:31;;;;;;;5.83;5.23;;;;;;;;;;5068402;28;20176;-55
2023/11/17 02:21:59;;;;;;;5.40;4.67;;;;;;;;;;5068402;28;20172;-56
2023/11/17 02:24:30;;;;;;;5.87;4.47;;;;;;;;;;5067313;28;20415;-55
2023/11/17 02:27:00;;;;;;;4.40;4.00;;;;;;;;;;5066857;28;20173;-56
2023/11/17 02:29:39;;;;;;;6.67;4.27;;;;;;;;;;5067904;28;20184;-55
2023/11/17 02:32:05;;;;;;;7.63;4.97;;;;;;;;;;5067835;28;20247;-55
2023/11/17 02:34:32;;;;;;;4.70;4.23;;;;;;;;;;5066199;28;20189;-55
2023/11/17 02:36:59;;;;;;;4.57;4.07;;;;;;;;;;5066392;28;20191;-57
2023/11/17 02:39:25;;;;;;;6.70;4.90;;;;;;;;;;5064360;28;20180;-56
2023/11/17 02:41:58;;;;;;;5.60;5.00;;;;;;;;;;5064658;28;20192;-58
2023/11/17 02:44:28;;;;;;;10.10;5.03;;;;;;;;;;5066525;28;20266;-55
2023/11/17 02:46:58;;;;;;;6.30;5.23;;;;;;;;;;5061597;28;20180;-55
2023/11/17 02:49:33;;;;;;;5.53;4.70;;;;;;;;;;5048909;28;20288;-55
2023/11/17 02:52:03;;;;;;;5.60;4.30;;;;;;;;;;5061596;28;20237;-55
2023/11/17 02:54:29;;;;;;;5.47;4.70;;;;;;;;;;5066777;28;20547;-55
2023/11/17 02:56:56;;;;;;;4.97;4.47;;;;;;;;;;5066775;28;20569;-55
2023/11/17 02:59:23;;;;;;;6.97;5.37;;;;;;;;;;5067735;28;20200;-55
2023/11/17 03:01:52;;;;;;;5.40;4.80;;;;;;;;;;5066910;28;20299;-55
2023/11/17 03:04:18;;;;;;;5.90;4.67;;;;;;;;;;5066341;28;20283;-55
2023/11/17 03:06:48;;;;;;;7.13;5.60;;;;;;;;;;5067928;28;20727;-55
2023/11/17 03:09:15;;;;;;;5.53;4.97;;;;;;;;;;5068031;28;20185;-53
2023/11/17 03:11:42;;;;;;;5.40;4.23;;;;;;;;;;5066324;28;20188;-53
2023/11/17 03:14:09;;;;;;;5.10;4.47;;;;;;;;;;5067369;28;20181;-53
2023/11/17 03:16:38;;;;;;;5.37;4.80;;;;;;;;;;5066991;28;20584;-53
2023/11/17 03:19:10;;;;;;;5.57;4.93;;;;;;;;;;5066218;28;20275;-54
2023/11/17 03:21:44;;;;;;;5.77;5.17;;;;;;;;;;5064947;28;20692;-54
2023/11/17 03:24:14;;;;;;;6.13;4.70;;;;;;;;;;5070257;28;20208;-54
2023/11/17 03:26:44;;;;;;;7.20;5.33;;;;;;;;;;5070197;28;20591;-53
2023/11/17 03:29:14;;;;;;;5.70;4.80;;;;;;;;;;5071181;28;20540;-53
2023/11/17 03:31:47;;;;;;;5.80;4.60;;;;;;;;;;5069398;28;20224;-54
2023/11/17 03:34:14;;;;;;;6.60;5.30;;;;;;;;;;5070653;28;20501;-54
2023/11/17 03:36:40;;;;;;;8.40;5.20;;;;;;;;;;5070853;28;20224;-53
2023/11/17 03:39:12;;;;;;;5.47;4.90;;;;;;;;;;5065103;28;20199;-53
2023/11/17 03:41:39;;;;;;;8.20;5.53;;;;;;;;;;5070129;28;20267;-53
2023/11/17 03:44:07;;;;;;;6.57;5.07;;;;;;;;;;5068346;28;20483;-54
2023/11/17 03:46:33;;;;;;;6.57;5.73;;;;;;;;;;5068959;28;20207;-53
2023/11/17 03:48:59;;;;;;;6.30;5.23;;;;;;;;;;5071178;28;20650;-54
2023/11/17 03:51:26;;;;;;;5.50;4.90;;;;;;;;;;5070295;28;20176;-53
2023/11/17 03:53:52;;;;;;;6.47;5.00;;;;;;;;;;5069220;28;20249;-53
2023/11/17 03:56:20;;;;;;;6.67;4.77;;;;;;;;;;5070073;28;20511;-53
2023/11/17 03:58:46;;;;;;;6.20;5.60;;;;;;;;;;5070248;28;20212;-54
2023/11/17 04:01:12;;;;;;;7.27;5.83;;;;;;;;;;5069379;28;20238;-54
2023/11/17 04:03:38;;;;;;;7.80;5.40;;;;;;;;;;5051705;28;20242;-54
2023/11/17 04:06:05;;;;;;;6.10;5.27;;;;;;;;;;5070265;28;20173;-54
2023/11/17 04:08:31;;;;;;;7.83;6.10;;;;;;;;;;5067954;28;20735;-54
2023/11/17 04:10:57;;;;;;;8.03;5.80;;;;;;;;;;5068804;28;20184;-54
2023/11/17 04:13:24;;;;;;;6.27;5.63;;;;;;;;;;5069983;28;20188;-53
2023/11/17 04:15:50;;;;;;;6.43;5.03;;;;;;;;;;5070367;28;20201;-53
2023/11/17 04:18:16;;;;;;;6.33;5.73;;;;;;;;;;5068710;28;20188;-54
2023/11/17 04:20:43;;;;;;;7.67;5.70;;;;;;;;;;5069917;28;20184;-54
2023/11/17 04:23:10;;;;;;;5.73;5.13;;;;;;;;;;5069777;28;20185;-53
2023/11/17 04:25:36;;;;;;;6.67;4.80;;;;;;;;;;5069668;28;20637;-54
2023/11/17 04:28:02;;;;;;;7.27;5.97;;;;;;;;;;5067930;28;20192;-54
2023/11/17 04:30:28;;;;;;;5.70;5.20;;;;;;;;;;5065613;28;20704;-54
2023/11/17 04:32:55;;;;;;;6.67;5.40;;;;;;;;;;5068151;28;20220;-54
2023/11/17 04:35:21;;;;;;;6.50;4.97;;;;;;;;;;5062355;28;20191;-54
2023/11/17 04:37:48;;;;;;;6.80;6.10;;;;;;;;;;5069058;28;20198;-53
2023/11/17 04:40:16;;;;;;;7.17;5.80;;;;;;;;;;5067481;28;20913;-54
2023/11/17 04:42:42;;;;;;;7.60;5.47;;;;;;;;;;5067521;28;20722;-53
2023/11/17 04:45:09;;;;;;;7.33;5.90;;;;;;;;;;5069514;28;20219;-54
2023/11/17 04:47:36;;;;;;;9.37;6.30;;;;;;;;;;5069058;28;20184;-54
2023/11/17 04:50:03;;;;;;;6.73;5.67;;;;;;;;;;5068222;28;20184;-54
2023/11/17 04:52:30;;;;;;;6.63;5.77;;;;;;;;;;5069691;28;20208;-54
2023/11/17 04:55:02;;;;;;;7.13;5.57;;;;;;;;;;5069215;28;20184;-53
2023/11/17 04:57:28;;;;;;;7.30;6.00;;;;;;;;;;5068334;28;20199;-54
2023/11/17 04:59:54;;;;;;;8.67;5.87;;;;;;;;;;5069304;28;20843;-54
2023/11/17 05:02:21;;;;;;;6.63;5.80;;;;;;;;;;5068341;28;20172;-54
2023/11/17 05:04:48;;;;;;;7.17;6.03;;;;;;;;;;5069247;28;20219;-54
2023/11/17 05:07:14;;;;;;;7.50;5.90;;;;;;;;;;5068025;28;20181;-54
2023/11/17 05:09:40;;;;;;;7.53;5.77;;;;;;;;;;5069078;28;20193;-54
2023/11/17 05:12:06;;;;;;;8.80;6.13;;;;;;;;;;5068792;28;20640;-54
2023/11/17 05:14:35;;;;;;;;;;;;;;;;;;5069103;28;20282;-54
2023/11/17 05:17:06;;;;;;;8.53;6.60;;;;;;;;;;5068350;28;20178;-54
2023/11/17 05:19:34;;;;;;;8.10;6.30;;;;;;;;;;5066325;28;20189;-54
2023/11/17 05:22:03;;;;;;;8.70;6.80;;;;;;;;;;5067639;28;20180;-54
2023/11/17 05:24:30;;;;;;;12.13;7.40;;;;;;;;;;5067850;28;20639;-54
2023/11/17 05:26:57;;;;;;;9.13;7.20;;;;;;;;;;5067590;28;20700;-53
2023/11/17 05:29:23;;;;;;;9.83;7.97;;;;;;;;;;5067248;28;20188;-53
2023/11/17 05:31:49;;;;;;;8.53;7.20;;;;;;;;;;5046847;28;20339;-54
2023/11/17 05:34:17;;;;;;;10.37;7.13;;;;;;;;;;5047787;28;20185;-54
2023/11/17 05:36:43;;;;;;;9.47;7.07;;;;;;;;;;5046324;28;20177;-54
2023/11/17 05:39:11;;;;;;;10.00;8.07;;;;;;;;;;5048615;28;20188;-53
2023/11/17 05:41:39;;;;;;;9.33;6.87;;;;;;;;;;5048531;28;20266;-54
2023/11/17 05:44:06;;;;;;;9.10;7.43;;;;;;;;;;5047206;28;20665;-54
2023/11/17 05:46:33;;;;;;;10.27;7.90;;;;;;;;;;5046632;28;20182;-54
2023/11/17 05:48:59;;;;;;;11.20;8.03;;;;;;;;;;5047949;28;20174;-54
2023/11/17 05:51:26;;;;;;;9.57;7.80;;;;;;;;;;5046700;28;20189;-54
2023/11/17 05:53:52;;;;;;;9.40;7.77;;;;;;;;;;5046721;28;20281;-53
2023/11/17 05:56:18;;;;;;;9.97;8.03;;;;;;;;;;5046767;28;20337;-54
2023/11/17 05:58:44;;;;;;;10.30;8.23;;;;;;;;;;5044970;28;20237;-54
2023/11/17 06:01:13;;;;;;;10.60;7.40;;;;;;;;;;5047011;28;20183;-54
2023/11/17 06:03:39;;;;;;;9.10;7.87;;;;;;;;;;5043921;28;20196;-54
2023/11/17 06:06:05;;;;;;;11.83;10.27;;;;;;;;;;5045611;28;20199;-54
2023/11/17 06:08:32;;;;;;;11.73;10.30;;;;;;;;;;5044286;28;20181;-54
2023/11/17 06:11:00;;;;;;;11.90;10.17;;;;;;;;;;5047517;28;20181;-54
2023/11/17 06:13:27;;;;;;;11.20;10.00;;;;;;;;;;5048267;28;20669;-54
2023/11/17 06:15:53;;;;;;;11.00;9.73;;;;;;;;;;5047160;28;20212;-54
2023/11/17 06:18:19;;;;;;;11.27;9.77;;;;;;;;;;5044901;28;20181;-54
2023/11/17 06:20:47;;;;;;;12.00;9.40;;;;;;;;;;5046569;28;20184;-54
2023/11/17 06:23:13;;;;;;;10.83;9.57;;;;;;;;;;5047334;28;20250;-54
2023/11/17 06:25:39;;;;;;;12.27;10.70;;;;;;;;;;5046998;28;20950;-54
2023/11/17 06:28:05;;;;;;;14.60;11.47;;;;;;;;;;5047248;28;20669;-54
2023/11/17 06:30:31;;;;;;;14.60;11.15;;;;;;;;;;5043618;28;20696;-54
2023/11/17 06:32:57;;;;;;;14.73;10.70;;;;;;;;;;5042442;28;20243;-54
2023/11/17 06:35:24;;;;;;;14.70;11.20;;;;;;;;;;5046452;28;20212;-54
2023/11/17 06:37:50;;;;;;;12.10;10.50;;;;;;;;;;5046709;28;20173;-54
2023/11/17 06:40:17;;;;;;;14.90;10.80;;;;;;;;;;5046171;28;20211;-55
2023/11/17 06:42:43;;;;;;;13.37;10.73;;;;;;;;;;5042078;28;20557;-55
2023/11/17 06:45:12;;;;;;;11.77;9.53;;;;;;;;;;5045580;28;20287;-55
2023/11/17 06:47:41;;;;;;;12.97;10.87;;;;;;;;;;5047677;28;20185;-55
2023/11/17 06:50:11;;;;;;;11.33;10.13;;;;;;;;;;5047821;28;20526;-54
2023/11/17 06:52:37;;;;;;;12.75;10.75;;;;;;;;;;5047665;28;20188;-55
2023/11/17 06:55:04;;;;;;;15.87;11.13;;;;;;;;;;5047936;28;20873;-55
2023/11/17 06:57:32;;;;;;;12.30;10.17;;;;;;;;;;5050886;28;20184;-55
2023/11/17 06:59:58;;;;;;;12.67;10.60;;;;;;;;;;5051375;28;20177;-55
2023/11/17 07:02:24;;;;;;;11.50;10.37;;;;;;;;;;5050707;28;20185;-55
2023/11/17 07:04:50;;;;;;;13.47;10.47;;;;;;;;;;5049502;28;20679;-55
2023/11/17 07:07:16;;;;;;;13.60;10.93;;;;;;;;;;5049372;28;20652;-55
2023/11/17 07:09:42;;;;;;;13.50;9.73;;;;;;;;;;5048346;28;20192;-55
2023/11/17 07:12:10;;;;;;;13.73;10.80;;;;;;;;;;5046379;28;20597;-54
2023/11/17 07:14:36;;;;;;;13.00;10.47;;;;;;;;;;5048688;28;20219;-55
2023/11/17 07:17:06;;;;;;;12.00;10.57;;;;;;;;;;5051889;28;20295;-55
2023/11/17 07:19:35;;;;;;;11.77;10.53;;;;;;;;;;5048555;28;20185;-55
2023/11/17 07:22:01;;;;;;;11.60;9.57;;;;;;;;;;5049567;28;20220;-55
2023/11/17 07:24:29;;;;;;;12.43;9.97;;;;;;;;;;5047797;28;20266;-55
2023/11/17 07:26:55;;;;;;;13.83;10.73;;;;;;;;;;5050357;28;20193;-55
2023/11/17 07:29:23;;;;;;;12.80;9.60;;;;;;;;;;5050066;28;20204;-55
2023/11/17 07:31:50;;;;;;;13.13;10.67;;;;;;;;;;5053959;28;20299;-55
2023/11/17 07:34:16;;;;;;;13.63;11.20;;;;;;;;;;5070207;28;20188;-55
2023/11/17 07:36:44;;;;;;;17.00;12.83;;;;;;;;;;5070257;28;20184;-55
2023/11/17 07:39:12;;;;;;;18.50;12.67;;;;;;;;;;5069393;28;20172;-56
2023/11/17 07:41:39;;;;;;;20.13;13.53;;;;;;;;;;5071470;28;20223;-55
2023/11/17 07:44:06;;;;;;;18.83;13.17;;;;;;;;;;5070048;28;20237;-55
2023/11/17 07:46:33;;;;;;;19.47;13.27;;;;;;;;;;5068313;28;20185;-55
2023/11/17 07:48:59;;;;;;;20.00;13.97;;;;;;;;;;5067408;28;20637;-54
2023/11/17 07:51:26;;;;;;;20.00;14.37;;;;;;;;;;5051941;28;20172;-54
2023/11/17 07:53:53;;;;;;;19.83;13.83;;;;;;;;;;5067984;28;20230;-54
2023/11/17 07:56:19;;;;;;;19.63;14.13;;;;;;;;;;5069410;28;20173;-54
2023/11/17 07:58:46;;;;;;;19.13;13.90;;;;;;;;;;5069919;28;20317;-54
2023/11/17 08:01:13;;;;;;;21.10;14.80;;;;;;;;;;5067919;28;20284;-54
2023/11/17 08:03:39;;;;;;;22.33;15.57;;;;;;;;;;5069163;28;20228;-54
2023/11/17 08:06:06;;;;;;;25.83;15.27;;;;;;;;;;5069568;28;20230;-54
2023/11/17 08:08:33;;;;;;;21.23;15.27;;;;;;;;;;5067976;28;20272;-53
2023/11/17 08:11:02;;;;;;;21.97;14.97;;;;;;;;;;5068572;28;20176;-54
2023/11/17 08:13:28;;;;;;;20.83;14.77;;;;;;;;;;5070017;28;20183;-54
2023/11/17 08:15:54;;;;;;;19.63;14.23;;;;;;;;;;5069090;28;20894;-54
2023/11/17 08:18:21;;;;;;;21.00;14.90;;;;;;;;;;5069717;28;20179;-54
2023/11/17 08:20:47;;;;;;;20.13;13.53;;;;;;;;;;5065873;28;20018;-54
2023/11/17 08:23:19;;;;;;;24.07;17.10;;;;;;;;;;5069588;28;20176;-54
2023/11/17 08:25:45;;;;;;;22.83;15.93;;;;;;;;;;5068004;28;20951;-54
2023/11/17 08:28:11;;;;;;;19.67;14.73;;;;;;;;;;5070894;28;20675;-54
2023/11/17 08:30:37;;;;;;;21.80;15.30;;;;;;;;;;5067537;28;20636;-54
2023/11/17 08:33:09;;;;;;;20.13;14.60;;;;;;;;;;5069279;28;20274;-54
2023/11/17 08:35:37;;;;;;;21.40;15.30;;;;;;;;;;5069062;28;20542;-53
2023/11/17 08:38:06;;;;;;;22.50;15.63;;;;;;;;;;5067786;28;20176;-54
2023/11/17 08:40:32;;;;;;;22.67;15.77;;;;;;;;;;5068361;28;20663;-53
2023/11/17 08:42:58;;;;;;;23.70;14.00;;;;;;;;;;5067703;28;20181;-54
2023/11/17 08:45:24;;;;;;;23.87;16.30;;;;;;;;;;5068327;28;20208;-53
2023/11/17 08:47:50;;;;;;;24.63;16.93;;;;;;;;;;5065891;28;20188;-54
2023/11/17 08:50:17;;;;;;;24.90;15.53;;;;;;;;;;5068630;28;20611;-53
2023/11/17 08:52:43;;;;;;;22.83;15.40;;;;;;;;;;5066602;28;20637;-54
2023/11/17 08:55:17;;;;;;;23.43;16.83;;;;;;;;;;5066850;28;20688;-54
2023/11/17 08:57:44;;;;;;;23.47;16.23;;;;;;;;;;5065624;28;20222;-54
2023/11/17 09:00:30;;;;;;;25.40;16.63;;;;;;;;;;5066038;28;20742;-54
2023/11/17 09:02:56;;;;;;;24.00;16.20;;;;;;;;;;5065381;28;20199;-54
2023/11/17 09:05:23;;;;;;;22.63;15.63;;;;;;;;;;5068238;28;20261;-54
2023/11/17 09:07:50;;;;;;;23.53;16.80;;;;;;;;;;5056272;28;20200;-53
2023/11/17 09:10:20;;;;;;;23.40;15.80;;;;;;;;;;5060095;28;20181;-53
2023/11/17 09:12:47;;;;;;;24.87;16.97;;;;;;;;;;5060646;28;20188;-53
2023/11/17 09:15:16;;;;;;;25.97;16.80;;;;;;;;;;5058661;28;20644;-53
2023/11/17 09:17:46;;;;;;;26.00;17.30;;;;;;;;;;5059057;28;20185;-54
2023/11/17 09:20:13;;;;;;;25.00;15.70;;;;;;;;;;5057804;28;20654;-54
2023/11/17 09:22:40;;;;;;;23.87;16.37;;;;;;;;;;5063087;28;20196;-54
2023/11/17 09:25:13;;;;;;;23.97;16.37;;;;;;;;;;5060847;28;20204;-54
2023/11/17 09:27:40;;;;;;;26.67;16.83;;;;;;;;;;5064571;28;20195;-54
2023/11/17 09:30:07;;;;;;;26.63;16.87;;;;;;;;;;5059359;28;20177;-53
2023/11/17 09:32:33;;;;;;;21.77;14.70;;;;;;;;;;5058801;28;20216;-54
2023/11/17 09:34:59;;;;;;;24.67;16.73;;;;;;;;;;5057778;28;20189;-53
2023/11/17 09:37:25;;;;;;;25.77;16.73;;;;;;;;;;5062059;28;20661;-54
2023/11/17 09:39:51;;;;;;;23.43;17.27;;;;;;;;;;5062414;28;20426;-54
2023/11/17 09:42:17;;;;;;;27.67;16.90;;;;;;;;;;5058341;28;20180;-53
2023/11/17 09:44:46;;;;;;;21.50;16.17;;;;;;;;;;5058576;28;20707;-54
2023/11/17 09:47:19;;;;;;;25.43;17.50;;;;;;;;;;5054564;28;20260;-54
2023/11/17 09:49:47;;;;;;;26.20;17.07;;;;;;;;;;5057183;28;20268;-54
2023/11/17 09:52:14;;;;;;;25.20;17.00;;;;;;;;;;5063293;28;20162;-54
2023/11/17 09:54:42;;;;;;;27.20;17.53;;;;;;;;;;5065804;28;20177;-53
2023/11/17 09:57:08;;;;;;;27.53;18.37;;;;;;;;;;5064172;28;20577;-54
2023/11/17 09:59:35;;;;;;;22.87;16.10;;;;;;;;;;5059062;28;20277;-54
2023/11/17 10:02:01;;;;;;;29.57;18.27;;;;;;;;;;5055695;28;20192;-54
2023/11/17 10:04:29;;;;;;;29.70;18.13;;;;;;;;;;5063399;28;20310;-54
2023/11/17 10:06:55;;;;;;;31.33;19.73;;;;;;;;;;5061261;28;20195;-54
2023/11/17 10:09:22;;;;;;;27.57;18.07;;;;;;;;;;5059823;28;20578;-55
2023/11/17 10:11:50;;;;;;;26.70;17.80;;;;;;;;;;5060286;28;20234;-55
2023/11/17 10:14:17;;;;;;;25.33;17.63;;;;;;;;;;5063357;28;20509;-55
2023/11/17 10:16:43;;;;;;;24.03;17.27;;;;;;;;;;5058592;28;20185;-55
2023/11/17 10:19:12;;;;;;;26.00;16.93;;;;;;;;;;5059959;28;20173;-55
2023/11/17 10:21:38;;;;;;;23.23;17.27;;;;;;;;;;5060752;28;20220;-55
2023/11/17 10:24:06;;;;;;;26.60;17.87;;;;;;;;;;5056450;28;20200;-56
2023/11/17 10:26:33;;;;;;;24.80;16.80;;;;;;;;;;5051691;28;20216;-54
2023/11/17 10:29:00;;;;;;;22.60;16.50;;;;;;;;;;5062508;28;20184;-55
2023/11/17 10:31:26;;;;;;;;;;;;;;;;;;5058790;28;20243;-55
2023/11/17 10:33:54;;;;;;;28.30;19.17;;;;;;;;;;5055984;28;21171;-55
2023/11/17 10:36:22;;;;;;;29.03;18.03;;;;;;;;;;5057334;28;20207;-54
2023/11/17 10:38:49;;;;;;;29.40;18.93;;;;;;;;;;5058642;28;20907;-55
2023/11/17 10:41:35;;;;;;;28.33;19.27;;;;;;;;;;5058704;28;20259;-55
2023/11/17 10:44:02;;;;;;;25.10;19.43;;;;;;;;;;5059517;28;20481;-55
2023/11/17 10:46:37;;;;;;;26.60;18.33;;;;;;;;;;5062327;28;20181;-55
2023/11/17 10:49:04;;;;;;;24.60;17.10;;;;;;;;;;5054003;28;20169;-55
2023/11/17 10:51:32;;;;;;;27.53;18.80;;;;;;;;;;5056443;28;20189;-55
2023/11/17 10:54:05;;;;;;;24.00;17.70;;;;;;;;;;5058739;28;20172;-55
2023/11/17 10:56:32;;;;;;;21.93;16.97;;;;;;;;;;5057661;28;20656;-55
2023/11/17 10:58:59;;;;;;;21.55;16.00;;;;;;;;;;5061860;28;20197;-55
2023/11/17 11:01:34;;;;;;;24.93;16.23;;;;;;;;;;5057022;28;20128;-55
2023/11/17 11:04:01;;;;;;;19.67;14.67;;;;;;;;;;5065937;28;20253;-55
2023/11/17 11:06:27;;;;;;;20.07;16.03;;;;;;;;;;5067178;28;20177;-55
2023/11/17 11:08:54;;;;;;;21.67;15.17;;;;;;;;;;5065460;28;20230;-55
2023/11/17 11:11:21;;;;;;;20.50;14.70;;;;;;;;;;5065680;28;20184;-55
2023/11/17 11:13:51;;;;;;;16.90;13.73;;;;;;;;;;5066660;28;20242;-55
2023/11/17 11:16:17;;;;;;;18.13;13.57;;;;;;;;;;5065198;28;20180;-55
2023/11/17 11:18:47;;;;;;;17.47;14.33;;;;;;;;;;5062072;28;22112;-55
2023/11/17 11:21:17;;;;;;;19.73;14.67;;;;;;;;;;5064787;28;20230;-54
2023/11/17 11:23:47;;;;;;;20.53;15.30;;;;;;;;;;5067125;28;20252;-54
2023/11/17 11:26:19;;;;;;;20.80;17.13;;;;;;;;;;5066963;28;20734;-54
2023/11/17 11:28:45;;;;;;;19.57;14.93;;;;;;;;;;5066481;28;20173;-55
2023/11/17 11:31:14;;;;;;;22.40;17.43;;;;;;;;;;5066888;28;20591;-54
2023/11/17 11:33:41;;;;;;;20.93;15.83;;;;;;;;;;5062125;28;20514;-55
2023/11/17 11:36:10;;;;;;;19.97;16.73;;;;;;;;;;5067079;28;20515;-54
2023/11/17 11:38:37;;;;;;;21.47;16.27;;;;;;;;;;5063582;28;20614;-54
2023/11/17 11:41:11;;;;;;;22.53;16.87;;;;;;;;;;5055583;28;20238;-54
2023/11/17 11:43:37;;;;;;;23.07;16.63;;;;;;;;;;5056484;28;20211;-54
2023/11/17 11:46:04;;;;;;;23.77;19.27;;;;;;;;;;5064378;28;20948;-54
2023/11/17 11:48:33;;;;;;;21.23;16.40;;;;;;;;;;5069240;28;20177;-54
2023/11/17 11:50:59;;;;;;;19.90;16.73;;;;;;;;;;5068850;28;20188;-54
2023/11/17 11:53:32;;;;;;;19.80;16.90;;;;;;;;;;5069861;28;20267;-55
2023/11/17 11:56:14;;;;;;;25.77;17.97;;;;;;;;;;5068777;28;20618;-55
2023/11/17 11:58:44;;;;;;;25.27;17.33;;;;;;;;;;5069584;28;20335;-54
2023/11/17 12:01:11;;;;;;;22.30;16.50;;;;;;;;;;5068729;28;20209;-54
2023/11/17 12:03:37;;;;;;;22.03;17.20;;;;;;;;;;5067937;28;20181;-54
2023/11/17 12:06:04;;;;;;;21.97;17.03;;;;;;;;;;5068334;28;20193;-54
2023/11/17 12:08:31;;;;;;;21.80;15.50;;;;;;;;;;5071010;28;20176;-55
2023/11/17 12:11:01;;;;;;;27.40;18.23;;;;;;;;;;5066464;28;20183;-54
2023/11/17 12:13:43;;;;;;;24.73;17.73;;;;;;;;;;5068598;28;20631;-54
2023/11/17 12:16:11;;;;;;;28.43;19.33;;;;;;;;;;5070232;28;20529;-54
2023/11/17 12:18:37;;;;;;;28.37;19.37;;;;;;;;;;5070058;28;20186;-54
2023/11/17 12:21:17;;;;;;;29.33;19.27;;;;;;;;;;5066367;28;20180;-55
2023/11/17 12:23:56;;;;;;;27.80;17.90;;;;;;;;;;5064470;28;20569;-55
2023/11/17 12:26:24;;;;;;;25.53;17.83;;;;;;;;;;5069625;28;20745;-55
2023/11/17 12:28:50;;;;;;;30.17;18.37;;;;;;;;;;5067860;28;20180;-55
2023/11/17 12:31:18;;;;;;;28.60;18.60;;;;;;;;;;5068670;28;20204;-53
2023/11/17 12:33:48;;;;;;;25.57;17.23;;;;;;;;;;5068563;28;20250;-54
2023/11/17 12:36:15;;;;;;;26.73;18.30;;;;;;;;;;5067911;28;20268;-53
2023/11/17 12:38:43;;;;;;;28.50;18.77;;;;;;;;;;5068664;28;20188;-53
2023/11/17 12:41:12;;;;;;;24.30;17.07;;;;;;;;;;5069956;28;20181;-54
2023/11/17 12:43:45;;;;;;;26.27;18.10;;;;;;;;;;5065635;28;20195;-53
2023/11/17 12:46:11;;;;;;;25.90;18.20;;;;;;;;;;5067389;28;20230;-53
2023/11/17 12:48:41;;;;;;;26.30;17.00;;;;;;;;;;5068065;28;20663;-53
2023/11/17 12:51:07;;;;;;;29.43;18.83;;;;;;;;;;5066198;28;20183;-53
2023/11/17 12:53:52;;;;;;;30.40;20.37;;;;;;;;;;5067328;28;20176;-53
2023/11/17 12:56:18;;;;;;;29.93;19.53;;;;;;;;;;5065292;28;20176;-53
2023/11/17 12:58:44;;;;;;;34.80;20.80;;;;;;;;;;5066746;28;20207;-53
2023/11/17 13:01:14;;;;;;;33.57;19.23;;;;;;;;;;5069559;28;20166;-53
2023/11/17 13:03:41;;;;;;;29.13;18.87;;;;;;;;;;5064330;28;20507;-52
2023/11/17 13:06:08;;;;;;;38.50;22.27;;;;;;;;;;5067174;28;20181;-53
2023/11/17 13:08:35;;;;;;;35.75;23.05;;;;;;;;;;5068118;28;20172;-53
2023/11/17 13:11:06;;;;;;;42.97;27.37;;;;;;;;;;5068479;28;20520;-53
2023/11/17 13:13:32;;;;;;;48.17;25.60;;;;;;;;;;5071574;28;20180;-53
2023/11/17 13:15:59;;;;;;;39.77;25.40;;;;;;;;;;5067669;28;20164;-52
2023/11/17 13:18:25;;;;;;;44.60;28.90;;;;;;;;;;5067589;28;20696;-53
2023/11/17 13:20:54;;;;;;;42.67;27.33;;;;;;;;;;5066594;28;20636;-52
2023/11/17 13:23:20;;;;;;;48.97;31.50;;;;;;;;;;5066515;28;20176;-52
2023/11/17 13:26:00;;;;;;;42.10;28.27;;;;;;;;;;5067449;28;20207;-53
2023/11/17 13:28:26;;;;;;;46.73;29.47;;;;;;;;;;5067554;28;20258;-53
2023/11/17 13:30:52;;;;;;;47.03;30.37;;;;;;;;;;5065386;28;20191;-52
2023/11/17 13:33:18;;;;;;;49.67;30.50;;;;;;;;;;5066755;28;20532;-55
2023/11/17 13:35:44;;;;;;;48.80;31.47;;;;;;;;;;5071986;28;22358;-55
2023/11/17 13:38:11;;;;;;;53.27;31.27;;;;;;;;;;5072427;28;20570;-55
2023/11/17 13:40:37;;;;;;;49.10;30.30;;;;;;;;;;5067374;28;20191;-53
2023/11/17 13:43:09;;;;;;;86.10;60.83;;;;;;;;;;5073484;28;20175;-53
2023/11/17 13:45:37;;;;;;;61.20;33.90;;;;;;;;;;5063328;28;20657;-52
2023/11/17 13:48:10;;;;;;;52.90;33.20;;;;;;;;;;5069458;28;20628;-52
2023/11/17 13:50:36;;;;;;;59.00;32.47;;;;;;;;;;5073899;28;20631;-52
2023/11/17 13:53:04;;;;;;;51.00;31.13;;;;;;;;;;5068653;28;20172;-53
2023/11/17 13:55:31;;;;;;;50.23;29.63;;;;;;;;;;5049360;28;20185;-53
2023/11/17 13:57:59;;;;;;;52.93;30.37;;;;;;;;;;5067141;28;20249;-53
2023/11/17 14:00:25;;;;;;;51.20;30.00;;;;;;;;;;5067723;28;20184;-53
2023/11/17 14:02:53;;;;;;;49.57;29.90;;;;;;;;;;5067118;28;20180;-53
2023/11/17 14:05:19;;;;;;;41.67;26.87;;;;;;;;;;5068982;28;20333;-52
2023/11/17 14:07:45;;;;;;;45.67;28.37;;;;;;;;;;5068176;28;20176;-55
2023/11/17 14:10:13;;;;;;;45.77;27.67;;;;;;;;;;5064885;28;20644;-53
2023/11/17 14:12:39;;;;;;;39.93;26.53;;;;;;;;;;5057725;28;20216;-53
2023/11/17 14:15:06;;;;;;;46.43;28.53;;;;;;;;;;5064187;28;20207;-53
2023/11/17 14:17:35;;;;;;;49.83;27.63;;;;;;;;;;5063546;28;20196;-53
2023/11/17 14:20:07;;;;;;;41.33;25.67;;;;;;;;;;5062166;28;20299;-53
2023/11/17 14:22:33;;;;;;;44.00;28.03;;;;;;;;;;5065622;28;20177;-53
2023/11/17 14:24:59;;;;;;;44.37;28.07;;;;;;;;;;5067038;28;20287;-53
2023/11/17 14:27:26;;;;;;;44.67;26.43;;;;;;;;;;5064492;28;20530;-53
2023/11/17 14:29:54;;;;;;;47.10;28.10;;;;;;;;;;5066524;28;20632;-53
2023/11/17 14:32:20;;;;;;;41.47;26.77;;;;;;;;;;5066081;28;20224;-52